LFOE

Évreux-Fauville (BA 105) Air Base Airport

Évreux/Fauville, France
TAF LFOE 161400Z 1615/1715 31010G20KT CAVOK PROB30 TEMPO 1615/1618 33015G30KT 4000 -SHRA BKN060TCU BECMG 1700/1703 BKN010 BECMG 1707/1709 NSC
Issued Valid From Valid To
Jul-16 @ 14:00 UTC
(6 hours ago)
Jul-16 @ 15:00 UTC
(5 hours ago)
Jul-17 @ 15:00 UTC
(in 19 hours)
Jul-16 @ 15:00 to Jul-17 @ 00:00
TAF LFOE 161400Z 1615/1715 31010G20KT CAVOK
Wind Visibility Clouds Conditions
310° at 10 knots
 Gusting to 20 knots
10,000+ meters
  • No significant clouds
Expired Click to View Jul-16 @ 15:00 to Jul-16 @ 18:00
PROB30 TEMPO 1615/1618 33015G30KT 4000 -SHRA BKN060TCU
Wind Visibility Clouds Conditions
330° at 15 knots
 Gusting to 30 knots
4,007 meters
  • Broken at 6,000' AGL
  • Light Rain
Becoming Jul-17 @ 00:00 to Jul-17 @ 07:00
BECMG 1700/1703 BKN010
Wind Visibility Clouds Conditions
310° at 10 knots
 Gusting to 20 knots
10,000+ meters
  • Broken at 1,000' AGL
Becoming Jul-17 @ 07:00 to Jul-17 @ 15:00
BECMG 1707/1709 NSC
Wind Visibility Clouds Conditions
310° at 10 knots
 Gusting to 20 knots
10,000+ meters
  • No significant clouds
TAF LFOE 161400Z 1615/1715 31010G20KT CAVOK PROB30 TEMPO 1615/1618 33015G30KT 4000 -SHRA BKN060TCU BECMG 1700/1703 BKN010 BECMG 1707/1709 NSC
Issued Jul-16 @ 14:00 UTC
(6 hours ago)
Valid From Jul-16 @ 15:00 UTC
(5 hours ago)
Valid To Jul-17 @ 15:00 UTC
(in 19 hours)
Jul-16 @ 15:00 - Jul-17 @ 00:00
Wind Visibility
310° at 10 knots
 Gusting to 20 knots
10,000+ meters
Clouds
  • No significant clouds
Conditions
Jul-16 @ 15:00 - Jul-16 @ 18:00
Wind Visibility
330° at 15 knots
 Gusting to 30 knots
4,007 meters
Clouds
  • Broken at 6,000' AGL
Conditions
  • Light Rain
Becoming Jul-17 @ 00:00 - Jul-17 @ 07:00
Wind Visibility
310° at 10 knots
 Gusting to 20 knots
10,000+ meters
Clouds
  • Broken at 1,000' AGL
Conditions
Becoming Jul-17 @ 07:00 - Jul-17 @ 15:00
Wind Visibility
310° at 10 knots
 Gusting to 20 knots
10,000+ meters
Clouds
  • No significant clouds
Conditions